Terminal Aerodrome Forecast
Issued by NWS Shreveport, LA

Home | Current Version | Previous Version | Text Only | Print | Product List | Glossary On
Versions: 1 2 3 4 5 6 7 8 9 10 11 12 13 14 15 16
000
FTUS44 KSHV 211700 RRA
TAFTYR
TAF
KTYR 211751Z 2118/2218 VRB04KT P6SM SCT045
     FM220100 02004KT P6SM VCSH BKN050 BKN070
     FM220300 36006KT P6SM BKN050
     FM220600 03005KT P6SM SCT050 BKN080=

USA.gov is the U.S. government's official web portal to all federal, state and local government web resources and services.